sensor_id;sensor_type;location;lat;lon;timestamp;temperature;humidity
41557;DHT22;27720;51.992;5.890;2023-11-19T11:12:40;11.90;99.90
41557;DHT22;27720;51.992;5.890;2023-11-19T11:18:48;12.90;99.90
41557;DHT22;27720;51.992;5.890;2023-11-19T11:21:24;13.70;99.90
41557;DHT22;27720;51.992;5.890;2023-11-19T11:32:51;15.00;99.90
41557;DHT22;27720;51.992;5.890;2023-11-19T11:35:30;15.10;99.90
41557;DHT22;27720;51.992;5.890;2023-11-19T11:38:03;15.20;99.90
41557;DHT22;27720;51.992;5.890;2023-11-19T11:40:29;15.30;99.90
41557;DHT22;27720;51.992;5.890;2023-11-19T11:42:55;15.30;99.90
41557;DHT22;27720;51.992;5.890;2023-11-19T11:45:38;15.30;99.90
41557;DHT22;27720;51.992;5.890;2023-11-19T11:48:12;15.30;99.90
41557;DHT22;27720;51.992;5.890;2023-11-19T11:50:54;15.40;99.90
41557;DHT22;27720;51.992;5.890;2023-11-19T11:53:20;15.50;99.90
41557;DHT22;27720;51.992;5.890;2023-11-19T11:55:57;15.50;99.90
41557;DHT22;27720;51.992;5.890;2023-11-19T11:58:30;15.50;99.90
41557;DHT22;27720;51.992;5.890;2023-11-19T12:01:10;15.50;99.90
41557;DHT22;27720;51.992;5.890;2023-11-19T12:03:46;15.50;99.90
41557;DHT22;27720;51.992;5.890;2023-11-19T12:06:12;15.50;99.90
41557;DHT22;27720;51.992;5.890;2023-11-19T12:08:38;15.50;99.90
41557;DHT22;27720;51.992;5.890;2023-11-19T12:11:07;15.50;99.90
41557;DHT22;27720;51.992;5.890;2023-11-19T12:16:14;15.60;99.90
41557;DHT22;27720;51.992;5.890;2023-11-19T12:18:40;15.70;99.90
41557;DHT22;27720;51.992;5.890;2023-11-19T12:21:07;15.70;99.90
41557;DHT22;27720;51.992;5.890;2023-11-19T12:23:35;15.80;99.90
41557;DHT22;27720;51.992;5.890;2023-11-19T12:26:01;15.80;99.90
41557;DHT22;27720;51.992;5.890;2023-11-19T12:28:29;15.80;99.90
41557;DHT22;27720;51.992;5.890;2023-11-19T12:31:07;15.80;99.90
41557;DHT22;27720;51.992;5.890;2023-11-19T12:33:35;15.80;99.90
41557;DHT22;27720;51.992;5.890;2023-11-19T12:36:01;15.80;99.90
41557;DHT22;27720;51.992;5.890;2023-11-19T12:38:30;15.80;99.90
41557;DHT22;27720;51.992;5.890;2023-11-19T12:41:08;15.80;99.90
41557;DHT22;27720;51.992;5.890;2023-11-19T12:43:34;15.80;99.90
41557;DHT22;27720;51.992;5.890;2023-11-19T12:46:00;15.80;99.90
41557;DHT22;27720;51.992;5.890;2023-11-19T12:48:26;15.80;99.90
41557;DHT22;27720;51.992;5.890;2023-11-19T12:50:52;15.80;99.90
41557;DHT22;27720;51.992;5.890;2023-11-19T12:53:19;15.80;99.90
41557;DHT22;27720;51.992;5.890;2023-11-19T12:55:45;15.80;99.90
41557;DHT22;27720;51.992;5.890;2023-11-19T12:58:27;15.80;99.90
41557;DHT22;27720;51.992;5.890;2023-11-19T13:01:01;15.90;99.90
41557;DHT22;27720;51.992;5.890;2023-11-19T13:03:34;15.90;99.90
41557;DHT22;27720;51.992;5.890;2023-11-19T13:06:10;15.80;99.90
41557;DHT22;27720;51.992;5.890;2023-11-19T13:08:47;15.80;99.90
41557;DHT22;27720;51.992;5.890;2023-11-19T13:11:33;15.90;99.90
41557;DHT22;27720;51.992;5.890;2023-11-19T13:14:05;15.90;99.90
41557;DHT22;27720;51.992;5.890;2023-11-19T13:16:35;15.90;99.90
41557;DHT22;27720;51.992;5.890;2023-11-19T13:19:01;16.00;99.90
41557;DHT22;27720;51.992;5.890;2023-11-19T13:21:28;16.00;99.90
41557;DHT22;27720;51.992;5.890;2023-11-19T13:23:55;16.00;99.90
41557;DHT22;27720;51.992;5.890;2023-11-19T13:26:23;16.00;99.90
41557;DHT22;27720;51.992;5.890;2023-11-19T13:28:49;16.00;99.90
41557;DHT22;27720;51.992;5.890;2023-11-19T13:31:15;15.90;99.90
41557;DHT22;27720;51.992;5.890;2023-11-19T13:33:41;15.90;99.90
41557;DHT22;27720;51.992;5.890;2023-11-19T13:36:07;15.90;99.90
41557;DHT22;27720;51.992;5.890;2023-11-19T13:38:35;15.80;99.90
41557;DHT22;27720;51.992;5.890;2023-11-19T13:41:04;15.80;99.90
41557;DHT22;27720;51.992;5.890;2023-11-19T13:43:30;15.80;99.90
41557;DHT22;27720;51.992;5.890;2023-11-19T13:45:56;15.80;99.90
41557;DHT22;27720;51.992;5.890;2023-11-19T13:48:24;15.80;99.90
41557;DHT22;27720;51.992;5.890;2023-11-19T13:50:50;15.80;99.90
41557;DHT22;27720;51.992;5.890;2023-11-19T13:53:16;15.80;99.90
41557;DHT22;27720;51.992;5.890;2023-11-19T13:55:42;15.80;99.90
41557;DHT22;27720;51.992;5.890;2023-11-19T13:58:09;15.80;99.90
41557;DHT22;27720;51.992;5.890;2023-11-19T14:00:35;15.80;99.90
41557;DHT22;27720;51.992;5.890;2023-11-19T14:03:00;15.80;99.90
41557;DHT22;27720;51.992;5.890;2023-11-19T14:05:26;15.70;99.90
41557;DHT22;27720;51.992;5.890;2023-11-19T14:07:52;15.60;99.90
41557;DHT22;27720;51.992;5.890;2023-11-19T14:10:19;15.50;99.90
41557;DHT22;27720;51.992;5.890;2023-11-19T14:12:45;15.50;99.90
41557;DHT22;27720;51.992;5.890;2023-11-19T14:15:10;15.50;99.90
41557;DHT22;27720;51.992;5.890;2023-11-19T14:17:38;15.40;99.90
41557;DHT22;27720;51.992;5.890;2023-11-19T14:20:04;15.30;99.90
41557;DHT22;27720;51.992;5.890;2023-11-19T14:22:39;15.30;99.90
41557;DHT22;27720;51.992;5.890;2023-11-19T14:28:14;15.40;99.90
41557;DHT22;27720;51.992;5.890;2023-11-19T14:30:40;15.40;99.90
41557;DHT22;27720;51.992;5.890;2023-11-19T14:33:07;15.40;99.90
41557;DHT22;27720;51.992;5.890;2023-11-19T14:35:32;15.40;99.90
41557;DHT22;27720;51.992;5.890;2023-11-19T14:37:59;15.40;99.90
41557;DHT22;27720;51.992;5.890;2023-11-19T14:40:25;15.40;99.90
41557;DHT22;27720;51.992;5.890;2023-11-19T14:42:51;15.40;99.90
41557;DHT22;27720;51.992;5.890;2023-11-19T14:45:16;15.40;99.90
41557;DHT22;27720;51.992;5.890;2023-11-19T14:47:43;15.40;99.90
41557;DHT22;27720;51.992;5.890;2023-11-19T14:50:09;15.40;99.90
41557;DHT22;27720;51.992;5.890;2023-11-19T14:52:35;15.30;99.90
41557;DHT22;27720;51.992;5.890;2023-11-19T14:55:02;15.30;99.90
41557;DHT22;27720;51.992;5.890;2023-11-19T14:57:28;15.30;99.90
41557;DHT22;27720;51.992;5.890;2023-11-19T14:59:53;15.30;99.90
41557;DHT22;27720;51.992;5.890;2023-11-19T15:02:19;15.30;99.90
41557;DHT22;27720;51.992;5.890;2023-11-19T15:04:45;15.30;99.90
41557;DHT22;27720;51.992;5.890;2023-11-19T15:07:10;15.30;99.90
41557;DHT22;27720;51.992;5.890;2023-11-19T15:09:36;15.30;99.90
41557;DHT22;27720;51.992;5.890;2023-11-19T15:12:03;15.30;99.90
41557;DHT22;27720;51.992;5.890;2023-11-19T15:14:28;15.20;99.90
41557;DHT22;27720;51.992;5.890;2023-11-19T15:16:55;15.10;99.90
41557;DHT22;27720;51.992;5.890;2023-11-19T15:19:24;15.10;99.90
41557;DHT22;27720;51.992;5.890;2023-11-19T15:21:50;15.10;99.90
41557;DHT22;27720;51.992;5.890;2023-11-19T15:24:15;15.00;99.90
41557;DHT22;27720;51.992;5.890;2023-11-19T15:26:41;15.00;99.90
41557;DHT22;27720;51.992;5.890;2023-11-19T15:29:07;15.00;99.90
41557;DHT22;27720;51.992;5.890;2023-11-19T15:31:32;15.00;99.90
41557;DHT22;27720;51.992;5.890;2023-11-19T15:33:58;14.90;99.90
41557;DHT22;27720;51.992;5.890;2023-11-19T15:36:24;14.90;99.90
41557;DHT22;27720;51.992;5.890;2023-11-19T15:38:50;14.90;99.90
41557;DHT22;27720;51.992;5.890;2023-11-19T15:41:15;14.90;99.90
41557;DHT22;27720;51.992;5.890;2023-11-19T15:43:42;14.90;99.90
41557;DHT22;27720;51.992;5.890;2023-11-19T15:46:08;14.90;99.90
41557;DHT22;27720;51.992;5.890;2023-11-19T15:48:34;15.00;99.90
41557;DHT22;27720;51.992;5.890;2023-11-19T15:51:01;15.00;99.90
41557;DHT22;27720;51.992;5.890;2023-11-19T15:53:28;15.00;99.90
41557;DHT22;27720;51.992;5.890;2023-11-19T15:55:54;15.00;99.90
41557;DHT22;27720;51.992;5.890;2023-11-19T15:58:19;15.00;99.90
41557;DHT22;27720;51.992;5.890;2023-11-19T16:00:46;15.00;99.90
41557;DHT22;27720;51.992;5.890;2023-11-19T16:03:13;15.00;99.90
41557;DHT22;27720;51.992;5.890;2023-11-19T16:05:39;15.00;99.90
41557;DHT22;27720;51.992;5.890;2023-11-19T16:08:05;15.00;99.90
41557;DHT22;27720;51.992;5.890;2023-11-19T16:10:31;15.00;99.90
41557;DHT22;27720;51.992;5.890;2023-11-19T16:12:57;15.00;99.90
41557;DHT22;27720;51.992;5.890;2023-11-19T16:15:22;15.10;99.90
41557;DHT22;27720;51.992;5.890;2023-11-19T16:17:48;15.10;99.90
41557;DHT22;27720;51.992;5.890;2023-11-19T16:20:14;15.00;99.90
41557;DHT22;27720;51.992;5.890;2023-11-19T16:22:40;15.00;99.90
41557;DHT22;27720;51.992;5.890;2023-11-19T16:25:08;15.00;99.90
41557;DHT22;27720;51.992;5.890;2023-11-19T16:27:35;15.00;99.90
41557;DHT22;27720;51.992;5.890;2023-11-19T16:30:00;15.00;99.90
41557;DHT22;27720;51.992;5.890;2023-11-19T16:32:27;15.00;99.90
41557;DHT22;27720;51.992;5.890;2023-11-19T16:34:52;15.00;99.90
41557;DHT22;27720;51.992;5.890;2023-11-19T16:37:18;14.90;99.90
41557;DHT22;27720;51.992;5.890;2023-11-19T16:39:46;14.90;99.90
41557;DHT22;27720;51.992;5.890;2023-11-19T16:42:12;14.90;99.90
41557;DHT22;27720;51.992;5.890;2023-11-19T16:44:39;14.90;99.90
41557;DHT22;27720;51.992;5.890;2023-11-19T16:47:05;14.90;99.90
41557;DHT22;27720;51.992;5.890;2023-11-19T16:49:32;14.90;99.90
41557;DHT22;27720;51.992;5.890;2023-11-19T16:51:58;14.80;99.90
41557;DHT22;27720;51.992;5.890;2023-11-19T16:54:24;14.90;99.90
41557;DHT22;27720;51.992;5.890;2023-11-19T16:56:50;14.90;99.90
41557;DHT22;27720;51.992;5.890;2023-11-19T16:59:16;14.80;99.90
41557;DHT22;27720;51.992;5.890;2023-11-19T17:01:41;14.70;99.90
41557;DHT22;27720;51.992;5.890;2023-11-19T17:04:07;14.60;99.90
41557;DHT22;27720;51.992;5.890;2023-11-19T17:06:34;14.60;99.90
41557;DHT22;27720;51.992;5.890;2023-11-19T17:08:59;14.60;99.90
41557;DHT22;27720;51.992;5.890;2023-11-19T17:11:25;14.60;99.90
41557;DHT22;27720;51.992;5.890;2023-11-19T17:13:54;14.50;99.90
41557;DHT22;27720;51.992;5.890;2023-11-19T17:16:20;14.60;99.90
41557;DHT22;27720;51.992;5.890;2023-11-19T17:18:46;14.50;99.90
41557;DHT22;27720;51.992;5.890;2023-11-19T17:21:11;14.50;99.90
41557;DHT22;27720;51.992;5.890;2023-11-19T17:23:38;14.50;99.90
41557;DHT22;27720;51.992;5.890;2023-11-19T17:26:05;14.50;99.90
41557;DHT22;27720;51.992;5.890;2023-11-19T17:28:31;14.50;99.90
41557;DHT22;27720;51.992;5.890;2023-11-19T17:30:59;14.50;99.90
41557;DHT22;27720;51.992;5.890;2023-11-19T17:33:25;14.50;99.90
41557;DHT22;27720;51.992;5.890;2023-11-19T17:35:51;14.50;99.90
41557;DHT22;27720;51.992;5.890;2023-11-19T17:38:17;14.50;99.90
41557;DHT22;27720;51.992;5.890;2023-11-19T17:40:44;14.50;99.90
41557;DHT22;27720;51.992;5.890;2023-11-19T17:43:14;14.50;99.90
41557;DHT22;27720;51.992;5.890;2023-11-19T17:45:41;14.50;99.90
41557;DHT22;27720;51.992;5.890;2023-11-19T17:48:06;14.50;99.90
41557;DHT22;27720;51.992;5.890;2023-11-19T17:50:32;14.50;99.90
41557;DHT22;27720;51.992;5.890;2023-11-19T17:52:58;14.50;99.90
41557;DHT22;27720;51.992;5.890;2023-11-19T17:55:24;14.40;99.90
41557;DHT22;27720;51.992;5.890;2023-11-19T17:57:49;14.40;99.90
41557;DHT22;27720;51.992;5.890;2023-11-19T18:00:16;14.40;99.90
41557;DHT22;27720;51.992;5.890;2023-11-19T18:02:43;14.30;99.90
41557;DHT22;27720;51.992;5.890;2023-11-19T18:05:16;14.30;99.90
41557;DHT22;27720;51.992;5.890;2023-11-19T18:07:42;14.30;99.90
41557;DHT22;27720;51.992;5.890;2023-11-19T18:10:11;14.20;99.90
41557;DHT22;27720;51.992;5.890;2023-11-19T18:12:38;14.10;99.90
41557;DHT22;27720;51.992;5.890;2023-11-19T18:15:08;14.00;99.90
41557;DHT22;27720;51.992;5.890;2023-11-19T18:17:34;14.00;99.90
41557;DHT22;27720;51.992;5.890;2023-11-19T18:20:03;14.00;99.90
41557;DHT22;27720;51.992;5.890;2023-11-19T18:22:29;14.00;99.90
41557;DHT22;27720;51.992;5.890;2023-11-19T18:24:56;14.00;99.90
41557;DHT22;27720;51.992;5.890;2023-11-19T18:27:21;14.00;99.90
41557;DHT22;27720;51.992;5.890;2023-11-19T18:29:47;14.00;99.90
41557;DHT22;27720;51.992;5.890;2023-11-19T18:32:14;14.00;99.90
41557;DHT22;27720;51.992;5.890;2023-11-19T18:34:40;14.00;99.90
41557;DHT22;27720;51.992;5.890;2023-11-19T18:37:07;14.00;99.90
41557;DHT22;27720;51.992;5.890;2023-11-19T18:39:33;13.90;99.90
41557;DHT22;27720;51.992;5.890;2023-11-19T18:42:04;13.90;99.90
41557;DHT22;27720;51.992;5.890;2023-11-19T18:44:31;14.00;99.90
41557;DHT22;27720;51.992;5.890;2023-11-19T18:46:58;14.00;99.90
41557;DHT22;27720;51.992;5.890;2023-11-19T18:49:24;13.90;99.90
41557;DHT22;27720;51.992;5.890;2023-11-19T18:51:50;14.00;99.90
41557;DHT22;27720;51.992;5.890;2023-11-19T18:54:16;14.00;99.90
41557;DHT22;27720;51.992;5.890;2023-11-19T18:56:44;14.00;99.90
41557;DHT22;27720;51.992;5.890;2023-11-19T18:59:10;13.90;99.90
41557;DHT22;27720;51.992;5.890;2023-11-19T19:01:38;14.00;99.90
41557;DHT22;27720;51.992;5.890;2023-11-19T19:04:04;14.00;99.90
41557;DHT22;27720;51.992;5.890;2023-11-19T19:06:35;13.90;99.90
41557;DHT22;27720;51.992;5.890;2023-11-19T19:09:03;13.80;99.90
41557;DHT22;27720;51.992;5.890;2023-11-19T19:11:29;13.90;99.90
41557;DHT22;27720;51.992;5.890;2023-11-19T19:13:55;13.80;99.90
41557;DHT22;27720;51.992;5.890;2023-11-19T19:16:20;13.80;99.90
41557;DHT22;27720;51.992;5.890;2023-11-19T19:18:48;13.80;99.90
41557;DHT22;27720;51.992;5.890;2023-11-19T19:21:15;13.90;99.90
41557;DHT22;27720;51.992;5.890;2023-11-19T19:23:40;13.90;99.90
41557;DHT22;27720;51.992;5.890;2023-11-19T19:26:06;13.80;99.90
41557;DHT22;27720;51.992;5.890;2023-11-19T19:28:32;13.80;99.90
41557;DHT22;27720;51.992;5.890;2023-11-19T19:31:03;13.90;99.90
41557;DHT22;27720;51.992;5.890;2023-11-19T19:33:29;13.80;99.90
41557;DHT22;27720;51.992;5.890;2023-11-19T19:35:55;13.80;99.90
41557;DHT22;27720;51.992;5.890;2023-11-19T19:38:21;13.90;99.90
41557;DHT22;27720;51.992;5.890;2023-11-19T19:40:49;13.80;99.90
41557;DHT22;27720;51.992;5.890;2023-11-19T19:43:18;13.80;99.90
41557;DHT22;27720;51.992;5.890;2023-11-19T19:45:43;13.70;99.90
41557;DHT22;27720;51.992;5.890;2023-11-19T19:48:09;13.70;99.90
41557;DHT22;27720;51.992;5.890;2023-11-19T19:50:34;13.70;99.90
41557;DHT22;27720;51.992;5.890;2023-11-19T19:53:00;13.80;99.90
41557;DHT22;27720;51.992;5.890;2023-11-19T19:55:26;13.80;99.90
41557;DHT22;27720;51.992;5.890;2023-11-19T19:57:53;13.90;99.90
41557;DHT22;27720;51.992;5.890;2023-11-19T20:00:19;13.80;99.90
41557;DHT22;27720;51.992;5.890;2023-11-19T20:02:45;13.80;99.90
41557;DHT22;27720;51.992;5.890;2023-11-19T20:05:10;13.80;99.90
41557;DHT22;27720;51.992;5.890;2023-11-19T20:07:41;13.80;99.90
41557;DHT22;27720;51.992;5.890;2023-11-19T20:10:07;13.80;99.90
41557;DHT22;27720;51.992;5.890;2023-11-19T20:12:37;13.80;99.90
41557;DHT22;27720;51.992;5.890;2023-11-19T20:15:06;13.90;99.90
41557;DHT22;27720;51.992;5.890;2023-11-19T20:17:32;13.80;99.90
41557;DHT22;27720;51.992;5.890;2023-11-19T20:19:58;13.80;99.90
41557;DHT22;27720;51.992;5.890;2023-11-19T20:22:24;13.90;99.90
41557;DHT22;27720;51.992;5.890;2023-11-19T20:24:49;13.90;99.90
41557;DHT22;27720;51.992;5.890;2023-11-19T20:27:15;13.90;99.90
41557;DHT22;27720;51.992;5.890;2023-11-19T20:29:48;13.90;99.90
41557;DHT22;27720;51.992;5.890;2023-11-19T20:32:14;13.80;99.90
41557;DHT22;27720;51.992;5.890;2023-11-19T20:34:40;13.80;99.90
41557;DHT22;27720;51.992;5.890;2023-11-19T20:37:07;13.80;99.90
41557;DHT22;27720;51.992;5.890;2023-11-19T20:39:32;13.90;99.90
41557;DHT22;27720;51.992;5.890;2023-11-19T20:41:59;13.80;99.90
41557;DHT22;27720;51.992;5.890;2023-11-19T20:44:24;13.90;99.90
41557;DHT22;27720;51.992;5.890;2023-11-19T20:46:53;13.80;99.90
41557;DHT22;27720;51.992;5.890;2023-11-19T20:49:19;13.80;99.90
41557;DHT22;27720;51.992;5.890;2023-11-19T20:51:49;13.90;99.90
41557;DHT22;27720;51.992;5.890;2023-11-19T20:54:15;13.90;99.90
41557;DHT22;27720;51.992;5.890;2023-11-19T20:56:41;13.90;99.90
41557;DHT22;27720;51.992;5.890;2023-11-19T20:59:08;13.90;99.90
41557;DHT22;27720;51.992;5.890;2023-11-19T21:01:33;13.90;99.90
41557;DHT22;27720;51.992;5.890;2023-11-19T21:03:59;13.90;99.90
41557;DHT22;27720;51.992;5.890;2023-11-19T21:06:25;13.90;99.90
41557;DHT22;27720;51.992;5.890;2023-11-19T21:08:50;13.90;99.90
41557;DHT22;27720;51.992;5.890;2023-11-19T21:11:17;14.00;99.90
41557;DHT22;27720;51.992;5.890;2023-11-19T21:13:42;14.00;99.90
41557;DHT22;27720;51.992;5.890;2023-11-19T21:16:12;13.90;99.90
41557;DHT22;27720;51.992;5.890;2023-11-19T21:18:45;13.90;99.90
41557;DHT22;27720;51.992;5.890;2023-11-19T21:21:12;13.90;99.90
41557;DHT22;27720;51.992;5.890;2023-11-19T21:23:38;13.90;99.90
41557;DHT22;27720;51.992;5.890;2023-11-19T21:26:04;13.90;99.90
41557;DHT22;27720;51.992;5.890;2023-11-19T21:28:32;14.00;99.90
41557;DHT22;27720;51.992;5.890;2023-11-19T21:31:00;14.00;99.90
41557;DHT22;27720;51.992;5.890;2023-11-19T21:33:26;14.00;99.90
41557;DHT22;27720;51.992;5.890;2023-11-19T21:35:52;14.00;99.90
41557;DHT22;27720;51.992;5.890;2023-11-19T21:38:21;14.00;99.90
41557;DHT22;27720;51.992;5.890;2023-11-19T21:40:50;14.00;99.90
41557;DHT22;27720;51.992;5.890;2023-11-19T21:43:17;14.00;99.90
41557;DHT22;27720;51.992;5.890;2023-11-19T21:45:46;14.00;99.90
41557;DHT22;27720;51.992;5.890;2023-11-19T21:48:12;14.00;99.90
41557;DHT22;27720;51.992;5.890;2023-11-19T21:50:38;14.00;99.90
41557;DHT22;27720;51.992;5.890;2023-11-19T21:53:04;14.00;99.90
41557;DHT22;27720;51.992;5.890;2023-11-19T21:55:32;14.00;99.90
41557;DHT22;27720;51.992;5.890;2023-11-19T21:58:02;14.00;99.90
41557;DHT22;27720;51.992;5.890;2023-11-19T22:00:29;14.00;99.90
41557;DHT22;27720;51.992;5.890;2023-11-19T22:02:55;14.00;99.90
41557;DHT22;27720;51.992;5.890;2023-11-19T22:05:21;14.10;99.90
41557;DHT22;27720;51.992;5.890;2023-11-19T22:07:47;14.10;99.90
41557;DHT22;27720;51.992;5.890;2023-11-19T22:10:13;14.10;99.90
41557;DHT22;27720;51.992;5.890;2023-11-19T22:12:39;14.10;99.90
41557;DHT22;27720;51.992;5.890;2023-11-19T22:15:07;14.20;99.90
41557;DHT22;27720;51.992;5.890;2023-11-19T22:17:33;14.20;99.90
41557;DHT22;27720;51.992;5.890;2023-11-19T22:20:00;14.20;99.90
41557;DHT22;27720;51.992;5.890;2023-11-19T22:22:26;14.20;99.90
41557;DHT22;27720;51.992;5.890;2023-11-19T22:24:52;14.20;99.90
41557;DHT22;27720;51.992;5.890;2023-11-19T22:27:18;14.20;99.90
41557;DHT22;27720;51.992;5.890;2023-11-19T22:29:44;14.20;99.90
41557;DHT22;27720;51.992;5.890;2023-11-19T22:32:12;14.20;99.90
41557;DHT22;27720;51.992;5.890;2023-11-19T22:34:37;14.20;99.90
41557;DHT22;27720;51.992;5.890;2023-11-19T22:37:03;14.20;99.90
41557;DHT22;27720;51.992;5.890;2023-11-19T22:39:29;14.10;99.90
41557;DHT22;27720;51.992;5.890;2023-11-19T22:41:55;14.10;99.90
41557;DHT22;27720;51.992;5.890;2023-11-19T22:44:21;14.20;99.90
41557;DHT22;27720;51.992;5.890;2023-11-19T22:46:48;14.20;99.90
41557;DHT22;27720;51.992;5.890;2023-11-19T22:49:13;14.20;99.90
41557;DHT22;27720;51.992;5.890;2023-11-19T22:51:39;14.20;99.90
41557;DHT22;27720;51.992;5.890;2023-11-19T22:54:04;14.20;99.90
41557;DHT22;27720;51.992;5.890;2023-11-19T22:56:30;14.20;99.90
41557;DHT22;27720;51.992;5.890;2023-11-19T22:58:56;14.20;99.90
41557;DHT22;27720;51.992;5.890;2023-11-19T23:01:22;14.20;99.90
41557;DHT22;27720;51.992;5.890;2023-11-19T23:03:47;14.20;99.90
41557;DHT22;27720;51.992;5.890;2023-11-19T23:06:13;14.10;99.90
41557;DHT22;27720;51.992;5.890;2023-11-19T23:08:39;14.20;99.90
41557;DHT22;27720;51.992;5.890;2023-11-19T23:11:05;14.20;99.90
41557;DHT22;27720;51.992;5.890;2023-11-19T23:13:32;14.20;99.90
41557;DHT22;27720;51.992;5.890;2023-11-19T23:15:58;14.20;99.90
41557;DHT22;27720;51.992;5.890;2023-11-19T23:18:24;14.20;99.90
41557;DHT22;27720;51.992;5.890;2023-11-19T23:20:50;14.10;99.90
41557;DHT22;27720;51.992;5.890;2023-11-19T23:23:16;14.10;99.90
41557;DHT22;27720;51.992;5.890;2023-11-19T23:25:42;14.10;99.90
41557;DHT22;27720;51.992;5.890;2023-11-19T23:28:07;14.10;99.90
41557;DHT22;27720;51.992;5.890;2023-11-19T23:30:33;14.20;99.90
41557;DHT22;27720;51.992;5.890;2023-11-19T23:32:59;14.10;99.90
41557;DHT22;27720;51.992;5.890;2023-11-19T23:35:25;14.10;99.90
41557;DHT22;27720;51.992;5.890;2023-11-19T23:37:51;14.10;99.90
41557;DHT22;27720;51.992;5.890;2023-11-19T23:40:17;14.10;99.90
41557;DHT22;27720;51.992;5.890;2023-11-19T23:42:44;14.10;99.90
41557;DHT22;27720;51.992;5.890;2023-11-19T23:45:10;14.20;99.90
41557;DHT22;27720;51.992;5.890;2023-11-19T23:47:36;14.20;99.90
41557;DHT22;27720;51.992;5.890;2023-11-19T23:50:02;14.20;99.90
41557;DHT22;27720;51.992;5.890;2023-11-19T23:52:31;14.20;99.90
41557;DHT22;27720;51.992;5.890;2023-11-19T23:54:57;14.20;99.90
41557;DHT22;27720;51.992;5.890;2023-11-19T23:57:24;14.20;99.90
41557;DHT22;27720;51.992;5.890;2023-11-19T23:59:50;14.10;99.90
